Time;durP1;ratioP1;P1;durP2;ratioP2;P2;SDS_P1;SDS_P2;PMS_P1;PMS_P2;Temp;Humidity;BMP_temperature;BMP_pressure;BME280_temperature;BME280_humidity;BME280_pressure;Samples;Min_cycle;Max_cycle;Signal;HPM_P1;HPM_P2
2021/05/30 00:01:55;;;;;;;12.45;8.80;;;;;;;9.07;71.95;100423.44;5012979;28;20175;-61
2021/05/30 00:04:20;;;;;;;13.45;8.70;;;;;;;9.06;72.41;100419.09;5013570;28;20026;-61
2021/05/30 00:06:46;;;;;;;12.23;8.63;;;;;;;8.97;72.15;100425.69;5012689;28;20400;-60
2021/05/30 00:09:11;;;;;;;16.05;9.27;;;;;;;8.85;72.69;100418.25;5012086;28;20030;-60
2021/05/30 00:11:37;;;;;;;13.50;8.98;;;;;;;8.94;72.14;100415.41;5012962;28;20530;-60
2021/05/30 00:14:03;;;;;;;13.80;8.10;;;;;;;8.82;72.50;100424.00;5013294;28;20416;-60
2021/05/30 00:16:28;;;;;;;12.77;8.10;;;;;;;8.54;73.02;100416.09;5012682;28;20048;-60
2021/05/30 00:18:54;;;;;;;11.10;8.25;;;;;;;8.40;74.12;100425.09;5013290;28;20376;-62
2021/05/30 00:21:19;;;;;;;10.98;7.88;;;;;;;8.42;73.88;100421.19;5012694;28;20408;-60
2021/05/30 00:23:44;;;;;;;11.25;8.18;;;;;;;8.35;74.08;100422.97;5013162;28;20413;-60
2021/05/30 00:26:10;;;;;;;13.98;8.30;;;;;;;8.26;74.80;100424.16;5012779;28;20038;-60
2021/05/30 00:28:35;;;;;;;11.48;7.20;;;;;;;8.05;74.69;100421.59;5013079;28;20034;-64
2021/05/30 00:31:01;;;;;;;10.68;8.02;;;;;;;7.92;75.81;100425.81;5012508;28;20038;-60
2021/05/30 00:33:26;;;;;;;10.88;7.68;;;;;;;7.91;75.55;100432.19;5012981;28;20026;-60
2021/05/30 00:35:52;;;;;;;11.20;7.35;;;;;;;7.84;77.54;100426.00;4994850;28;20026;-60
2021/05/30 00:38:17;;;;;;;11.75;7.63;;;;;;;7.88;75.72;100437.09;5013099;28;20022;-60
2021/05/30 00:40:42;;;;;;;13.57;7.70;;;;;;;7.79;76.21;100433.75;5012716;28;20041;-60
2021/05/30 00:43:08;;;;;;;10.93;7.45;;;;;;;7.73;76.05;100431.84;5011840;28;20082;-60
2021/05/30 00:45:34;;;;;;;11.82;7.45;;;;;;;7.69;76.16;100433.28;5012513;28;20034;-60
2021/05/30 00:47:59;;;;;;;11.00;7.80;;;;;;;7.76;75.75;100428.78;5009531;28;20018;-60
2021/05/30 00:50:25;;;;;;;12.43;7.60;;;;;;;7.78;76.85;100432.91;5012262;28;20030;-60
2021/05/30 00:52:50;;;;;;;10.23;7.70;;;;;;;7.79;76.34;100425.75;5012697;28;20021;-60
2021/05/30 00:55:15;;;;;;;10.85;7.60;;;;;;;7.65;75.64;100432.81;4994934;28;20384;-60
2021/05/30 00:57:41;;;;;;;11.30;7.90;;;;;;;7.56;76.79;100429.47;5011552;28;20018;-60
2021/05/30 01:00:09;;;;;;;14.10;7.57;;;;;;;7.65;76.66;100429.34;5014588;28;20045;-60
2021/05/30 01:02:35;;;;;;;12.02;7.32;;;;;;;7.61;76.57;100425.38;5016353;28;20105;-61
2021/05/30 01:05:00;;;;;;;11.80;7.90;;;;;;;7.50;77.36;100424.91;5015925;28;20591;-61
2021/05/30 01:07:26;;;;;;;12.85;7.88;;;;;;;7.58;77.45;100431.94;5016193;28;20460;-60
2021/05/30 01:09:52;;;;;;;11.63;8.27;;;;;;;7.40;77.78;100423.59;5016006;28;20032;-60
2021/05/30 01:12:17;;;;;;;12.85;7.90;;;;;;;7.48;77.30;100426.13;5015754;28;20030;-60
2021/05/30 01:14:43;;;;;;;11.85;7.95;;;;;;;7.48;77.34;100429.59;5016305;28;20025;-60
2021/05/30 01:17:09;;;;;;;12.10;8.30;;;;;;;7.33;77.58;100427.00;5015629;28;20034;-60
2021/05/30 01:19:34;;;;;;;14.80;8.15;;;;;;;7.42;77.54;100427.72;5015931;28;20160;-60
2021/05/30 01:21:59;;;;;;;13.43;8.77;;;;;;;7.35;77.73;100432.16;5014327;28;20051;-60
2021/05/30 01:24:25;;;;;;;11.80;7.65;;;;;;;7.17;77.35;100429.13;5014829;28;20025;-60
2021/05/30 01:26:50;;;;;;;15.13;8.40;;;;;;;6.98;78.21;100425.25;5015384;28;20041;-59
2021/05/30 01:29:16;;;;;;;11.32;8.68;;;;;;;7.02;80.02;100422.03;5015778;28;20102;-59
2021/05/30 01:31:41;;;;;;;11.20;7.88;;;;;;;7.01;79.02;100420.34;5015378;28;20030;-60
2021/05/30 01:34:07;;;;;;;13.25;8.07;;;;;;;6.91;78.16;100419.84;5015782;28;20026;-60
2021/05/30 01:36:32;;;;;;;10.00;7.68;;;;;;;6.90;80.23;100418.19;5015159;28;20041;-60
2021/05/30 01:38:58;;;;;;;13.02;8.00;;;;;;;6.85;80.51;100416.09;5014613;28;20036;-59
2021/05/30 01:41:23;;;;;;;10.85;8.00;;;;;;;6.88;79.83;100417.56;5015173;28;20075;-60
2021/05/30 01:43:49;;;;;;;11.80;8.15;;;;;;;6.91;79.38;100419.84;5015670;28;20022;-60
2021/05/30 01:46:14;;;;;;;11.60;8.13;;;;;;;6.86;79.44;100414.25;5015476;28;20476;-60
2021/05/30 01:48:39;;;;;;;14.43;9.15;;;;;;;6.87;79.78;100418.59;5015522;28;20400;-60
2021/05/30 01:51:05;;;;;;;12.02;8.15;;;;;;;6.77;79.67;100415.41;5014977;28;20491;-60
2021/05/30 01:53:36;;;;;;;12.75;8.32;;;;;;;6.73;80.50;100416.78;5015405;28;20050;-60
2021/05/30 01:58:27;;;;;;;13.75;9.38;;;;;;;6.77;80.61;100418.06;5015403;28;20269;-60
2021/05/30 02:00:52;;;;;;;12.45;8.52;;;;;;;6.76;80.49;100416.41;5013666;28;20073;-60
2021/05/30 02:03:18;;;;;;;12.77;8.95;;;;;;;6.67;80.35;100413.03;5015361;28;20448;-59
2021/05/30 02:05:51;;;;;;;14.20;9.18;;;;;;;6.58;81.26;100422.97;5015095;28;20457;-60
2021/05/30 02:08:17;;;;;;;14.70;10.18;;;;;;;6.74;81.21;100419.28;5014004;28;20037;-60
2021/05/30 02:10:42;;;;;;;15.57;9.00;;;;;;;6.74;80.95;100419.28;5014238;28;20369;-60
2021/05/30 02:13:08;;;;;;;13.48;10.20;;;;;;;6.70;81.31;100413.47;5015224;28;20037;-60
2021/05/30 02:15:33;;;;;;;14.65;9.00;;;;;;;6.69;81.66;100417.16;5014874;28;20034;-60
2021/05/30 02:17:59;;;;;;;13.50;9.25;;;;;;;6.69;80.97;100416.34;5015098;28;20065;-60
2021/05/30 02:20:41;;;;;;;15.25;9.40;;;;;;;6.60;81.18;100418.28;5013800;28;20034;-60
2021/05/30 02:23:13;;;;;;;13.50;10.00;;;;;;;6.38;81.75;100413.91;5015049;28;20125;-60
2021/05/30 02:25:39;;;;;;;15.00;10.60;;;;;;;6.43;82.30;100416.84;5014834;28;20396;-60
2021/05/30 02:28:05;;;;;;;15.18;10.63;;;;;;;6.42;82.41;100413.38;5014956;28;20030;-60
2021/05/30 02:30:31;;;;;;;17.30;10.20;;;;;;;6.38;81.69;100414.75;5014146;28;20060;-60
2021/05/30 02:32:56;;;;;;;13.90;9.73;;;;;;;6.30;81.40;100416.69;5014844;28;20026;-60
2021/05/30 02:35:22;;;;;;;14.77;9.50;;;;;;;6.03;82.29;100411.00;5014365;28;20041;-60
2021/05/30 02:37:48;;;;;;;16.35;10.85;;;;;;;6.14;83.65;100415.88;5014651;28;20491;-60
2021/05/30 02:40:13;;;;;;;15.20;10.35;;;;;;;6.26;83.16;100422.41;5014380;28;20377;-60
2021/05/30 02:42:39;;;;;;;15.77;10.40;;;;;;;6.23;83.21;100422.75;5014527;28;20026;-60
2021/05/30 02:45:05;;;;;;;13.52;9.82;;;;;;;6.22;83.00;100421.09;5013918;28;20026;-60
2021/05/30 02:47:30;;;;;;;16.38;11.05;;;;;;;6.23;82.84;100422.75;5014758;28;20341;-60
2021/05/30 02:49:56;;;;;;;17.00;11.10;;;;;;;6.28;83.08;100418.72;5011177;28;20022;-60
2021/05/30 02:52:21;;;;;;;17.77;11.32;;;;;;;6.25;83.35;100425.22;5013989;28;20049;-60
2021/05/30 02:54:47;;;;;;;20.13;12.05;;;;;;;6.44;83.05;100418.50;5014263;28;20345;-60
2021/05/30 02:57:12;;;;;;;14.90;11.23;;;;;;;6.39;83.33;100413.75;5013811;28;20034;-60
2021/05/30 02:59:38;;;;;;;17.45;11.52;;;;;;;6.39;82.72;100420.88;5012800;28;20046;-60
2021/05/30 03:02:03;;;;;;;13.82;10.00;;;;;;;6.14;82.68;100415.88;5013631;28;20038;-60
2021/05/30 03:04:29;;;;;;;14.05;9.90;;;;;;;6.06;83.17;100413.28;5012954;28;20053;-59
2021/05/30 03:06:54;;;;;;;16.73;11.13;;;;;;;5.95;84.19;100419.91;5013687;28;20038;-59
2021/05/30 03:09:20;;;;;;;17.42;10.85;;;;;;;6.01;83.47;100418.34;5014095;28;20018;-60
2021/05/30 03:11:45;;;;;;;17.40;10.57;;;;;;;5.86;82.63;100412.97;5013498;28;20038;-60
2021/05/30 03:14:10;;;;;;;16.30;10.60;;;;;;;5.84;82.98;100415.84;5012599;28;20225;-60
2021/05/30 03:16:36;;;;;;;14.07;9.55;;;;;;;5.72;83.56;100411.97;5012148;28;20038;-60
2021/05/30 03:19:01;;;;;;;16.10;11.13;;;;;;;5.84;84.24;100415.84;5014090;28;20026;-60
2021/05/30 03:21:27;;;;;;;15.13;10.20;;;;;;;5.83;85.16;100411.50;5012422;28;20132;-59
2021/05/30 03:23:52;;;;;;;16.00;10.23;;;;;;;5.70;82.86;100414.00;5013862;28;20032;-60
2021/05/30 03:26:18;;;;;;;14.73;9.70;;;;;;;5.69;83.14;100404.38;5013447;28;20045;-60
2021/05/30 03:28:43;;;;;;;15.02;11.10;;;;;;;5.95;87.41;100414.59;5013591;28;20026;-60
2021/05/30 03:31:08;;;;;;;15.55;10.98;;;;;;;6.04;82.88;100424.13;5013281;28;20041;-61
2021/05/30 03:33:34;;;;;;;14.60;10.35;;;;;;;5.92;82.38;100424.75;5013740;28;20026;-60
2021/05/30 03:36:02;;;;;;;13.82;9.63;;;;;;;6.03;81.39;100422.47;5013132;28;20037;-60
2021/05/30 03:38:30;;;;;;;16.02;9.82;;;;;;;6.66;78.12;100416.69;5012310;28;20033;-60
2021/05/30 03:41:02;;;;;;;13.18;8.80;;;;;;;7.25;75.25;100416.50;5013156;28;20059;-60
2021/05/30 03:43:29;;;;;;;12.07;9.02;;;;;;;7.97;72.07;100427.91;5013543;28;20025;-60
2021/05/30 03:45:54;;;;;;;11.32;8.50;;;;;;;8.41;69.59;100434.72;5013101;28;20045;-60
2021/05/30 03:48:20;;;;;;;17.95;9.77;;;;;;;7.98;73.88;100426.88;5013510;28;20061;-60
2021/05/30 03:50:49;;;;;;;11.00;8.00;;;;;;;9.63;66.46;100431.06;5013116;28;20084;-60
2021/05/30 03:53:18;;;;;;;13.60;9.65;;;;;;;9.43;67.15;100425.72;5013439;28;20080;-63
2021/05/30 03:55:44;;;;;;;12.02;8.68;;;;;;;9.55;67.28;100428.59;5011713;28;20176;-61
2021/05/30 03:58:10;;;;;;;12.07;8.57;;;;;;;9.70;68.76;100431.88;5013172;28;20054;-60
2021/05/30 04:00:35;;;;;;;10.45;7.45;;;;;;;11.43;59.97;100431.19;5011849;28;20049;-60
2021/05/30 04:03:01;;;;;;;14.15;8.13;;;;;;;11.85;58.39;100428.75;5013211;28;20065;-60
2021/05/30 04:05:26;;;;;;;9.05;7.55;;;;;;;11.90;58.96;100427.31;5012848;28;20037;-60
2021/05/30 04:07:51;;;;;;;11.18;8.20;;;;;;;13.65;52.95;100431.00;5013235;28;20525;-61
2021/05/30 04:10:17;;;;;;;12.00;7.88;;;;;;;12.71;54.57;100432.38;5012686;28;20033;-60
2021/05/30 04:12:42;;;;;;;12.13;7.47;;;;;;;13.37;52.89;100436.00;5013152;28;20030;-60
2021/05/30 04:15:10;;;;;;;11.90;7.72;;;;;;;14.11;50.21;100430.16;5012942;28;20030;-60
2021/05/30 04:17:35;;;;;;;10.80;6.90;;;;;;;14.21;48.43;100430.38;5013178;28;20030;-61
2021/05/30 04:20:01;;;;;;;9.65;6.35;;;;;;;13.97;48.26;100437.66;5011509;28;20021;-61
2021/05/30 04:22:26;;;;;;;7.95;6.10;;;;;;;13.87;48.30;100429.34;5013202;28;20037;-61
2021/05/30 04:24:52;;;;;;;10.68;6.35;;;;;;;13.90;48.56;100433.47;5013012;28;20329;-61
2021/05/30 04:27:18;;;;;;;8.30;6.75;;;;;;;14.34;48.88;100432.00;5012615;28;20088;-61
2021/05/30 04:29:44;;;;;;;8.77;6.45;;;;;;;14.62;46.99;100442.03;5013166;28;20026;-61
2021/05/30 04:32:09;;;;;;;8.65;6.63;;;;;;;16.71;41.75;100434.78;5013444;28;20037;-60
2021/05/30 04:34:34;;;;;;;8.63;6.75;;;;;;;16.42;42.75;100428.75;5017072;28;20069;-61
2021/05/30 04:37:00;;;;;;;9.15;7.07;;;;;;;17.19;40.88;100436.66;5016527;28;20041;-61
2021/05/30 04:39:27;;;;;;;9.70;7.07;;;;;;;16.44;42.86;100435.53;5016885;28;20041;-61
2021/05/30 04:41:53;;;;;;;11.95;8.00;;;;;;;16.31;43.18;100442.16;5015111;28;20042;-61
2021/05/30 04:44:18;;;;;;;10.27;7.93;;;;;;;16.19;44.27;100433.31;5017040;28;20067;-61
2021/05/30 04:46:43;;;;;;;9.77;7.35;;;;;;;17.49;41.09;100437.19;5016350;28;20153;-61
2021/05/30 04:49:09;;;;;;;9.40;6.85;;;;;;;17.59;40.08;100443.50;5012306;28;20018;-60
2021/05/30 04:51:34;;;;;;;9.85;6.60;;;;;;;16.77;41.47;100439.16;5016315;28;20053;-60
2021/05/30 04:54:00;;;;;;;7.45;6.10;;;;;;;16.78;41.95;100435.44;5016605;28;20420;-60
2021/05/30 04:56:25;;;;;;;9.32;6.47;;;;;;;17.71;40.08;100446.03;5015995;28;20443;-60
2021/05/30 04:58:51;;;;;;;7.75;6.50;;;;;;;17.48;40.27;100438.28;5016503;28;20053;-60
2021/05/30 05:01:16;;;;;;;7.68;6.78;;;;;;;18.67;38.39;100447.66;5016164;28;20034;-60
2021/05/30 05:03:42;;;;;;;8.95;6.65;;;;;;;19.06;37.53;100447.25;5016522;28;20030;-60
2021/05/30 05:06:07;;;;;;;8.32;7.00;;;;;;;18.97;38.09;100446.16;5014729;28;20033;-60
2021/05/30 05:08:33;;;;;;;7.78;6.53;;;;;;;18.71;39.16;100447.94;5016425;28;20072;-60
2021/05/30 05:10:58;;;;;;;8.15;6.80;;;;;;;20.55;35.36;100444.41;5015833;28;20045;-60
2021/05/30 05:13:24;;;;;;;8.50;6.78;;;;;;;19.46;37.02;100440.22;5016439;28;20018;-60
2021/05/30 05:15:50;;;;;;;9.38;7.25;;;;;;;19.86;36.57;100441.28;5015971;28;20030;-60
2021/05/30 05:18:20;;;;;;;9.38;6.68;;;;;;;20.02;36.59;100442.91;5016256;28;20471;-60
2021/05/30 05:20:46;;;;;;;10.60;6.70;;;;;;;19.78;36.91;100439.13;5015767;28;20042;-61
2021/05/30 05:23:12;;;;;;;7.60;6.13;;;;;;;19.43;38.13;100440.75;5015022;28;20045;-60
2021/05/30 05:25:38;;;;;;;7.85;6.80;;;;;;;19.97;36.52;100440.19;5015638;28;20041;-60
2021/05/30 05:28:03;;;;;;;7.63;6.60;;;;;;;20.74;35.05;100448.09;5015941;28;20025;-60
2021/05/30 05:30:29;;;;;;;9.93;7.18;;;;;;;20.47;35.99;100451.22;5015716;28;20128;-59
2021/05/30 05:32:54;;;;;;;7.80;6.90;;;;;;;21.72;33.77;100451.81;5015976;28;20104;-60
2021/05/30 05:35:20;;;;;;;9.55;7.05;;;;;;;20.77;35.64;100453.00;5015488;28;20472;-60
2021/05/30 05:37:45;;;;;;;9.15;7.22;;;;;;;20.74;34.82;100450.00;5015795;28;20499;-60
2021/05/30 05:40:11;;;;;;;9.07;7.10;;;;;;;21.24;34.26;100448.91;5015282;28;20034;-60
2021/05/30 05:42:37;;;;;;;7.90;6.65;;;;;;;21.71;33.59;100444.69;4998185;28;20369;-60
2021/05/30 05:45:03;;;;;;;10.40;7.40;;;;;;;21.45;33.76;100452.31;5014836;28;20112;-60
2021/05/30 05:47:29;;;;;;;9.73;7.05;;;;;;;21.36;34.38;100450.44;5015789;28;20033;-60
2021/05/30 05:49:54;;;;;;;7.97;7.10;;;;;;;22.46;32.27;100443.38;5015674;28;20365;-60
2021/05/30 05:52:20;;;;;;;10.75;7.45;;;;;;;22.19;33.57;100449.44;5015210;28;20038;-60
2021/05/30 05:54:45;;;;;;;10.93;8.10;;;;;;;20.45;37.25;100446.03;5015566;28;20030;-60
2021/05/30 05:57:11;;;;;;;9.48;7.60;;;;;;;22.31;33.66;100458.03;5013866;28;20057;-60
2021/05/30 05:59:36;;;;;;;10.60;8.27;;;;;;;21.42;34.84;100452.88;5015232;28;20092;-60
2021/05/30 06:02:02;;;;;;;10.35;7.85;;;;;;;22.47;33.44;100455.16;5015035;28;20041;-60
2021/05/30 06:04:27;;;;;;;11.82;7.85;;;;;;;20.64;36.97;100456.31;5015270;28;20018;-60
2021/05/30 06:06:53;;;;;;;11.85;8.30;;;;;;;20.57;37.22;100453.13;5014755;28;20046;-59
2021/05/30 06:09:18;;;;;;;11.82;8.15;;;;;;;22.00;34.24;100463.00;5013909;28;20026;-59
2021/05/30 06:11:44;;;;;;;11.50;8.93;;;;;;;22.13;34.71;100465.03;5014802;28;20056;-59
2021/05/30 06:14:10;;;;;;;9.27;8.30;;;;;;;23.89;31.65;100462.34;5015122;28;20033;-59
2021/05/30 06:16:35;;;;;;;10.88;8.68;;;;;;;23.15;31.74;100465.72;5014732;28;20044;-59
2021/05/30 06:19:01;;;;;;;10.10;8.15;;;;;;;23.04;32.91;100465.06;5015125;28;20030;-60
2021/05/30 06:21:27;;;;;;;10.05;8.57;;;;;;;22.05;34.45;100464.88;5014897;28;20041;-60
2021/05/30 06:23:52;;;;;;;10.90;8.75;;;;;;;22.71;33.75;100466.84;5014813;28;20034;-60
2021/05/30 06:26:17;;;;;;;11.82;8.10;;;;;;;23.35;32.25;100464.59;5014573;28;20161;-60
2021/05/30 06:28:43;;;;;;;11.23;8.63;;;;;;;23.44;32.03;100462.00;5014840;28;20022;-60
2021/05/30 06:31:08;;;;;;;9.27;8.02;;;;;;;23.63;32.18;100467.41;5014455;28;20057;-60
2021/05/30 06:33:34;;;;;;;11.63;8.52;;;;;;;24.32;30.81;100465.63;5014853;28;20030;-60
2021/05/30 06:35:59;;;;;;;10.27;8.60;;;;;;;22.10;34.08;100465.63;5014511;28;20037;-60
2021/05/30 06:38:25;;;;;;;12.43;8.85;;;;;;;23.06;32.87;100456.53;5014510;28;20033;-61
2021/05/30 06:40:50;;;;;;;11.10;8.77;;;;;;;24.09;31.43;100466.66;5014131;28;20034;-61
2021/05/30 06:43:15;;;;;;;12.55;8.70;;;;;;;23.24;32.24;100468.59;5011526;28;20034;-61
2021/05/30 06:45:41;;;;;;;13.73;8.65;;;;;;;24.57;30.62;100477.22;5014181;28;20034;-61
2021/05/30 06:48:07;;;;;;;10.48;8.48;;;;;;;24.24;31.22;100469.09;5014461;28;20025;-61
2021/05/30 06:50:32;;;;;;;11.20;8.60;;;;;;;24.55;30.97;100473.97;5013900;28;20041;-61
2021/05/30 06:52:58;;;;;;;10.50;8.90;;;;;;;24.70;30.52;100481.06;5014338;28;20042;-61
2021/05/30 06:55:23;;;;;;;10.30;8.63;;;;;;;24.62;30.43;100485.34;5014128;28;20471;-61
2021/05/30 06:57:49;;;;;;;13.23;8.88;;;;;;;23.79;32.33;100484.41;5014332;28;20380;-62
2021/05/30 07:00:15;;;;;;;10.65;8.93;;;;;;;25.50;29.59;100471.28;5012706;28;20476;-61
2021/05/30 07:02:41;;;;;;;10.98;9.00;;;;;;;25.70;29.19;100485.63;5014143;28;20025;-61
2021/05/30 07:05:08;;;;;;;11.45;8.50;;;;;;;25.92;29.18;100482.91;5013710;28;20084;-62
2021/05/30 07:07:33;;;;;;;10.30;9.13;;;;;;;24.81;30.00;100476.16;4996382;28;20034;-61
2021/05/30 07:09:58;;;;;;;12.30;8.38;;;;;;;25.57;29.84;100481.84;5014012;28;20021;-61
2021/05/30 07:12:24;;;;;;;12.65;9.20;;;;;;;24.62;31.20;100476.31;5013742;28;20034;-61
2021/05/30 07:14:49;;;;;;;12.60;9.52;;;;;;;24.29;32.08;100477.19;5014005;28;20026;-61
2021/05/30 07:17:16;;;;;;;10.80;8.98;;;;;;;25.49;30.02;100479.88;5013567;28;20077;-61
2021/05/30 07:19:41;;;;;;;12.90;9.40;;;;;;;25.65;29.16;100483.03;5013950;28;20034;-61
2021/05/30 07:22:07;;;;;;;10.60;8.95;;;;;;;24.90;30.94;100477.06;5013526;28;20045;-61
2021/05/30 07:24:32;;;;;;;12.45;9.43;;;;;;;22.53;34.51;100476.63;5014038;28;20026;-61
2021/05/30 07:26:58;;;;;;;10.90;9.02;;;;;;;23.98;32.28;100476.16;5013374;28;20095;-61
2021/05/30 07:29:23;;;;;;;12.02;8.40;;;;;;;22.93;32.68;100479.94;5013852;28;20357;-61
2021/05/30 07:31:49;;;;;;;11.18;9.13;;;;;;;22.12;35.10;100474.34;5013296;28;20037;-60
2021/05/30 07:34:14;;;;;;;11.52;9.10;;;;;;;22.67;34.74;100481.41;5013726;28;20030;-61
2021/05/30 07:36:40;;;;;;;13.35;9.02;;;;;;;22.21;34.86;100476.47;5013163;28;20066;-61
2021/05/30 07:39:05;;;;;;;18.30;9.55;;;;;;;21.83;35.40;100479.00;5013829;28;20022;-61
2021/05/30 07:41:32;;;;;;;11.48;8.68;;;;;;;22.57;33.96;100477.69;5012433;28;20037;-61
2021/05/30 07:43:57;;;;;;;11.07;8.43;;;;;;;20.77;38.30;100477.53;5013540;28;20026;-59
2021/05/30 07:46:23;;;;;;;12.27;8.70;;;;;;;22.35;35.34;100480.13;5012150;28;20075;-59
2021/05/30 07:48:48;;;;;;;15.30;8.82;;;;;;;22.93;34.03;100477.19;5013314;28;20033;-61
2021/05/30 07:51:14;;;;;;;14.88;8.50;;;;;;;22.37;34.61;100494.31;5012542;28;20037;-74
2021/05/30 07:53:39;;;;;;;13.45;8.50;;;;;;;20.80;37.14;100479.69;5011862;28;20026;-64
2021/05/30 07:56:04;;;;;;;14.32;8.75;;;;;;;21.35;37.20;100478.81;5013019;28;20520;-63
2021/05/30 07:58:30;;;;;;;11.95;8.90;;;;;;;22.12;35.57;100482.53;5012835;28;20046;-61
2021/05/30 08:00:55;;;;;;;13.68;8.68;;;;;;;23.63;32.73;100481.09;5012392;28;20069;-64
2021/05/30 08:03:22;;;;;;;11.48;8.20;;;;;;;22.45;34.04;100479.19;5013277;28;20052;-61
2021/05/30 08:05:47;;;;;;;10.90;8.25;;;;;;;21.38;36.04;100489.97;5012654;28;20040;-69
2021/05/30 08:08:13;;;;;;;11.55;8.05;;;;;;;21.61;36.02;100483.00;4995096;28;20022;-62
2021/05/30 08:10:39;;;;;;;10.77;7.80;;;;;;;21.86;35.15;100490.13;5012466;28;20045;-62
2021/05/30 08:13:04;;;;;;;10.80;7.40;;;;;;;21.47;35.56;100487.50;5013054;28;20030;-61
2021/05/30 08:15:30;;;;;;;12.55;7.90;;;;;;;21.56;35.44;100485.75;5012982;28;20041;-61
2021/05/30 08:17:55;;;;;;;11.32;7.72;;;;;;;20.63;37.79;100477.31;5012957;28;20022;-61
2021/05/30 08:20:22;;;;;;;11.18;7.60;;;;;;;20.64;37.18;100486.28;5012606;28;20050;-61
2021/05/30 08:22:47;;;;;;;11.13;7.50;;;;;;;20.75;36.36;100481.63;5013288;28;20088;-61
2021/05/30 08:25:14;;;;;;;13.65;7.72;;;;;;;20.44;37.78;100477.09;5012693;28;20414;-61
2021/05/30 08:27:39;;;;;;;12.80;8.90;;;;;;;19.44;39.37;100483.16;5012815;28;20136;-61
2021/05/30 08:30:06;;;;;;;10.20;7.85;;;;;;;21.00;37.22;100475.22;5012387;28;20022;-61
2021/05/30 08:32:31;;;;;;;12.57;7.95;;;;;;;20.88;35.86;100478.28;5012945;28;20384;-60
2021/05/30 08:34:57;;;;;;;10.65;7.70;;;;;;;19.63;39.92;100485.34;5011705;28;20030;-60
2021/05/30 08:37:22;;;;;;;12.57;7.28;;;;;;;20.37;37.17;100487.47;5010699;28;20042;-61
2021/05/30 08:39:48;;;;;;;10.52;7.10;;;;;;;19.17;39.46;100478.78;5011788;28;20037;-61
2021/05/30 08:42:14;;;;;;;10.55;6.82;;;;;;;20.50;36.96;100474.34;5012338;28;20037;-61
2021/05/30 08:44:39;;;;;;;9.80;7.05;;;;;;;21.92;35.08;100477.28;5012706;28;20064;-61
2021/05/30 08:47:05;;;;;;;10.23;6.85;;;;;;;20.61;36.65;100470.50;5012160;28;20068;-61
2021/05/30 08:49:30;;;;;;;11.10;7.32;;;;;;;21.15;35.10;100472.41;5012668;28;20018;-61
2021/05/30 08:51:56;;;;;;;10.60;6.80;;;;;;;20.69;36.91;100478.09;5012178;28;20041;-62
2021/05/30 08:54:21;;;;;;;8.55;6.40;;;;;;;20.56;35.91;100473.25;5012786;28;20030;-60
2021/05/30 08:56:47;;;;;;;7.85;5.82;;;;;;;21.04;35.46;100465.38;5012399;28;20033;-62
2021/05/30 08:59:34;;;;;;;10.82;6.63;;;;;;;21.36;35.48;100472.25;5012557;28;20050;-61
2021/05/30 09:02:00;;;;;;;11.65;6.90;;;;;;;20.37;35.33;100465.69;5012084;28;20515;-59
2021/05/30 09:04:30;;;;;;;14.35;6.57;;;;;;;21.15;35.18;100464.22;5012606;28;20464;-62
2021/05/30 09:06:55;;;;;;;9.77;6.00;;;;;;;20.65;35.58;100460.69;5011635;28;20073;-60
2021/05/30 09:09:21;;;;;;;8.25;5.38;;;;;;;20.60;33.56;100466.16;5012131;28;20033;-60
2021/05/30 09:11:48;;;;;;;8.20;5.53;;;;;;;21.53;32.37;100473.50;5010548;28;20038;-60
2021/05/30 09:14:20;;;;;;;9.00;4.90;;;;;;;22.05;31.78;100465.66;5011229;28;20057;-61
2021/05/30 09:17:02;;;;;;;8.57;5.38;;;;;;;22.35;30.54;100469.22;4994630;28;20084;-60
2021/05/30 09:19:30;;;;;;;7.88;5.03;;;;;;;21.08;32.53;100466.44;5013673;28;20042;-60
2021/05/30 09:22:28;;;;;;;8.90;5.20;;;;;;;21.75;31.90;100456.69;5015556;28;20045;-60
2021/05/30 09:25:01;;;;;;;8.30;5.47;;;;;;;20.94;33.91;100463.53;5012995;28;20060;-60
2021/05/30 09:27:27;;;;;;;8.52;4.55;;;;;;;19.91;34.49;100449.44;5015440;28;20046;-62
2021/05/30 09:30:14;;;;;;;9.05;4.15;;;;;;;20.40;32.22;100453.41;5015771;28;20354;-60
2021/05/30 09:32:52;;;;;;;7.38;4.40;;;;;;;20.42;32.26;100446.59;5015466;28;20054;-60
2021/05/30 09:35:17;;;;;;;7.93;4.72;;;;;;;22.26;29.50;100443.63;5015277;28;20034;-60
2021/05/30 09:37:43;;;;;;;9.10;4.63;;;;;;;21.09;30.90;100454.44;5015932;28;20490;-61
2021/05/30 09:40:09;;;;;;;8.25;4.55;;;;;;;20.80;31.50;100441.53;5015436;28;20114;-61
2021/05/30 09:42:36;;;;;;;7.38;3.90;;;;;;;20.89;29.63;100444.47;5014446;28;20413;-61
2021/05/30 09:45:12;;;;;;;8.00;4.18;;;;;;;20.26;32.25;100439.56;5015258;28;20053;-61
2021/05/30 09:47:38;;;;;;;6.18;4.00;;;;;;;20.93;31.46;100439.28;5015678;28;20017;-60
2021/05/30 09:50:05;;;;;;;7.45;4.00;;;;;;;19.60;33.47;100435.84;5015053;28;20124;-60
2021/05/30 09:52:52;;;;;;;7.03;4.32;;;;;;;21.05;32.46;100442.50;5015360;28;20022;-61
2021/05/30 09:55:21;;;;;;;8.43;4.30;;;;;;;19.49;34.42;100438.84;5015136;28;20060;-61
2021/05/30 09:58:16;;;;;;;6.70;4.30;;;;;;;20.55;32.47;100433.50;5015432;28;20038;-61
2021/05/30 10:00:43;;;;;;;9.73;4.07;;;;;;;21.42;31.02;100441.97;5014898;28;20680;-60
2021/05/30 10:03:08;;;;;;;4.93;3.65;;;;;;;20.41;30.12;100425.88;5015249;28;20072;-60
2021/05/30 10:05:34;;;;;;;6.65;3.90;;;;;;;20.29;32.05;100430.03;5014805;28;20090;-60
2021/05/30 10:08:00;;;;;;;6.03;3.80;;;;;;;20.14;32.44;100428.16;5015564;28;20021;-62
2021/05/30 10:10:26;;;;;;;5.63;3.20;;;;;;;20.14;28.79;100423.53;5014895;28;20030;-62
2021/05/30 10:12:51;;;;;;;5.47;3.50;;;;;;;21.17;28.12;100429.31;5015069;28;20053;-60
2021/05/30 10:15:17;;;;;;;5.68;3.90;;;;;;;21.36;28.73;100431.34;5013205;28;20353;-60
2021/05/30 10:17:42;;;;;;;6.25;3.20;;;;;;;21.20;27.14;100434.19;5014940;28;20025;-61
2021/05/30 10:20:19;;;;;;;5.53;3.50;;;;;;;20.32;28.64;100432.19;4996864;28;20017;-61
2021/05/30 10:22:48;;;;;;;16.17;9.82;;;;;;;20.57;28.08;100432.13;5013724;28;20034;-61
2021/05/30 10:25:15;;;;;;;5.27;3.27;;;;;;;20.66;27.33;100429.63;5013075;28;20373;-61
2021/05/30 10:27:45;;;;;;;6.13;3.40;;;;;;;20.11;29.18;100423.28;4997113;28;20025;-61
2021/05/30 10:30:10;;;;;;;6.90;3.90;;;;;;;20.31;28.93;100433.28;5012849;28;20030;-60
2021/05/30 10:32:45;;;;;;;6.47;3.60;;;;;;;20.38;28.96;100429.16;5014489;28;20026;-61
2021/05/30 10:35:12;;;;;;;5.32;3.20;;;;;;;21.15;28.90;100426.06;5014006;28;20025;-60
2021/05/30 10:37:45;;;;;;;6.65;4.15;;;;;;;22.25;27.66;100420.19;5013063;28;20049;-60
2021/05/30 10:40:25;;;;;;;7.65;3.67;;;;;;;22.12;27.13;100416.19;5013571;28;20471;-61
2021/05/30 10:43:11;;;;;;;11.27;3.85;;;;;;;20.99;29.17;100422.63;5014268;28;20025;-61
2021/05/30 10:45:46;;;;;;;5.43;3.20;;;;;;;22.17;27.30;100408.75;5013970;28;20034;-61
2021/05/30 10:48:18;;;;;;;6.32;3.80;;;;;;;22.13;27.27;100413.16;5013164;28;20050;-60
2021/05/30 10:51:00;;;;;;;8.57;3.80;;;;;;;21.00;28.11;100409.81;5013771;28;20125;-62
2021/05/30 10:53:31;;;;;;;5.95;3.33;;;;;;;21.09;28.61;100410.81;5014303;28;20491;-61
2021/05/30 10:56:26;;;;;;;5.30;3.50;;;;;;;20.90;28.36;100406.06;5012868;28;20061;-61
2021/05/30 10:59:04;;;;;;;6.43;3.63;;;;;;;20.51;29.71;100394.28;5013957;28;20133;-61
2021/05/30 11:01:43;;;;;;;8.48;3.13;;;;;;;20.11;28.95;100383.28;5013848;28;20053;-61
2021/05/30 11:04:24;;;;;;;5.88;3.60;;;;;;;20.87;29.77;100395.72;5014121;28;20369;-61
2021/05/30 11:06:53;;;;;;;5.20;3.65;;;;;;;21.74;30.49;100388.75;5013795;28;20125;-61
2021/05/30 11:09:19;;;;;;;7.15;4.00;;;;;;;21.98;29.91;100389.56;5012912;28;20025;-61
2021/05/30 11:12:03;;;;;;;6.50;3.67;;;;;;;23.04;27.44;100383.03;5012408;28;20053;-62
2021/05/30 11:14:28;;;;;;;7.68;3.95;;;;;;;21.69;29.67;100400.56;5014040;28;20477;-61
2021/05/30 11:16:54;;;;;;;7.07;3.92;;;;;;;20.81;31.00;100394.13;5012358;28;20041;-61
2021/05/30 11:19:19;;;;;;;8.57;3.88;;;;;;;21.19;31.57;100388.13;5013732;28;20026;-61
2021/05/30 11:21:46;;;;;;;7.18;3.80;;;;;;;21.93;30.10;100386.09;5013140;28;20038;-61
2021/05/30 11:24:19;;;;;;;5.00;3.63;;;;;;;22.79;27.90;100381.47;5013971;28;20084;-61